Time;durP1;ratioP1;P1;durP2;ratioP2;P2;SDS_P1;SDS_P2;PMS_P1;PMS_P2;Temp;Humidity;BMP_temperature;BMP_pressure;BME280_temperature;BME280_humidity;BME280_pressure;Samples;Min_cycle;Max_cycle;Signal;HPM_P1;HPM_P2
2022/09/23 00:01:06;;;;;;;2.90;2.40;;;;;;;9.42;82.12;98813.30;104954;1271;73806;-24
2022/09/23 00:03:34;;;;;;;3.90;2.40;;;;;;;9.25;82.52;98810.27;104773;1271;75876;-24
2022/09/23 00:06:06;;;;;;;2.40;2.00;;;;;;;8.90;83.95;98808.88;104688;1271;75558;-24
2022/09/23 00:08:34;;;;;;;2.60;1.80;;;;;;;8.81;84.85;98807.86;104828;1274;63744;-24
2022/09/23 00:11:09;;;;;;;2.40;2.10;;;;;;;9.14;83.83;98805.91;104889;1271;61186;-24
2022/09/23 00:13:37;;;;;;;2.60;2.00;;;;;;;9.31;81.81;98804.59;104063;1271;74686;-25
2022/09/23 00:16:05;;;;;;;2.60;2.40;;;;;;;9.25;81.94;98802.30;104789;1271;75354;-26
2022/09/23 00:18:32;;;;;;;3.10;2.20;;;;;;;9.05;82.60;98801.45;104648;1271;75855;-25
2022/09/23 00:21:04;;;;;;;3.50;2.20;;;;;;;8.89;83.22;98790.77;104972;1271;61956;-25
2022/09/23 00:23:31;;;;;;;3.70;1.40;;;;;;;8.71;83.63;98791.50;104724;1271;62121;-25
2022/09/23 00:25:59;;;;;;;2.00;1.80;;;;;;;9.05;82.92;98792.48;104892;1271;74720;-25
2022/09/23 00:28:27;;;;;;;4.10;1.90;;;;;;;9.44;81.00;98784.90;104871;1272;76962;-25
2022/09/23 00:30:54;;;;;;;3.80;2.00;;;;;;;9.28;80.87;98784.39;104848;1271;75325;-25
2022/09/23 00:33:21;;;;;;;4.20;2.00;;;;;;;9.05;81.66;98783.84;104791;1271;63189;-25
2022/09/23 00:35:48;;;;;;;5.00;2.10;;;;;;;8.71;83.09;98779.36;104703;1271;62753;-24
2022/09/23 00:38:16;;;;;;;4.40;2.50;;;;;;;8.52;84.36;98781.71;104743;1271;76609;-25
2022/09/23 00:40:44;;;;;;;2.70;1.60;;;;;;;8.43;84.86;98779.36;104751;1271;76783;-25
2022/09/23 00:43:12;;;;;;;3.60;2.00;;;;;;;8.86;83.56;98778.92;104890;1271;75624;-25
2022/09/23 00:45:45;;;;;;;5.30;2.00;;;;;;;8.95;82.17;98776.42;104777;1272;63030;-25
2022/09/23 00:48:17;;;;;;;2.70;2.30;;;;;;;8.70;83.03;98778.77;104678;1271;61745;-25
2022/09/23 00:50:47;;;;;;;2.30;2.00;;;;;;;8.51;84.11;98786.09;104808;1271;76579;-25
2022/09/23 00:53:15;;;;;;;4.80;2.70;;;;;;;8.35;84.99;98792.30;104734;1272;76057;-25
2022/09/23 00:55:54;;;;;;;2.30;1.60;;;;;;;8.22;85.68;98789.48;104592;1271;75432;-25
2022/09/23 00:58:25;;;;;;;2.60;1.80;;;;;;;8.68;84.51;98790.48;104693;1271;63436;-25
2022/09/23 01:00:53;;;;;;;6.10;2.00;;;;;;;8.93;82.92;98788.34;104767;1271;61580;-25
2022/09/23 01:03:21;;;;;;;4.50;2.40;;;;;;;8.81;83.35;98788.65;104715;1271;74996;-25
2022/09/23 01:05:48;;;;;;;3.20;2.30;;;;;;;8.59;84.04;98787.55;104758;1271;76008;-26
2022/09/23 01:08:15;;;;;;;7.50;3.00;;;;;;;8.33;85.56;98788.84;104778;1271;74295;-26
2022/09/23 01:10:50;;;;;;;3.00;1.50;;;;;;;8.17;86.55;98789.81;104805;1271;64396;-27
2022/09/23 01:13:38;;;;;;;2.30;2.10;;;;;;;8.69;84.88;98785.42;104658;1271;63333;-25
2022/09/23 01:16:43;;;;;;;4.50;2.20;;;;;;;8.97;83.05;98783.08;105046;1271;76539;-26
2022/09/23 01:19:19;;;;;;;5.00;2.20;;;;;;;8.87;82.89;98785.56;104850;1271;76054;-26
2022/09/23 01:22:01;;;;;;;2.90;2.10;;;;;;;8.62;83.84;98784.71;104892;1271;74178;-25
2022/09/23 01:24:43;;;;;;;4.00;3.00;;;;;;;8.35;84.90;98787.08;105087;1271;62912;-25
2022/09/23 01:27:16;;;;;;;2.10;1.80;;;;;;;8.19;86.14;98781.73;105084;1272;62008;-25
2022/09/23 01:30:04;;;;;;;3.30;2.00;;;;;;;8.52;84.98;98780.42;105133;1271;74663;-25
2022/09/23 01:32:35;;;;;;;4.60;2.40;;;;;;;8.67;83.89;98780.02;105116;1271;77499;-26
2022/09/23 01:35:11;;;;;;;2.90;2.10;;;;;;;8.64;84.09;98783.19;104690;1271;76277;-26
2022/09/23 01:39:29;;;;;;;2.90;2.40;;;;;;;8.32;85.11;98784.05;101739;1310;600620;-27
2022/09/23 01:42:16;;;;;;;3.00;1.80;;;;;;;7.97;86.72;98784.73;104185;1285;63557;-26
2022/09/23 01:44:55;;;;;;;2.50;2.00;;;;;;;8.51;84.90;98779.67;104175;1284;61925;-26
2022/09/23 01:47:32;;;;;;;2.40;2.20;;;;;;;8.70;83.63;98785.01;104177;1284;73744;-25
2022/09/23 01:50:54;;;;;;;3.20;2.40;;;;;;;8.38;84.35;98784.66;104252;1285;76744;-25
2022/09/23 01:52:50;;;;;;;2.80;2.30;;;;;;;8.02;85.85;98786.24;103194;1285;1073785;-25
2022/09/23 01:55:27;;;;;;;3.60;2.30;;;;;;;7.77;87.26;98785.67;104331;1281;61239;-25
2022/09/23 01:58:09;;;;;;;2.20;2.00;;;;;;;8.16;86.32;98788.01;104263;1281;62040;-26
2022/09/23 02:00:39;;;;;;;3.90;2.10;;;;;;;8.37;85.01;98790.06;104154;1284;73739;-25
2022/09/23 02:03:14;;;;;;;2.40;2.00;;;;;;;8.27;85.23;98789.44;104245;1281;75017;-26
2022/09/23 02:05:44;;;;;;;4.60;2.50;;;;;;;8.11;85.82;98790.83;104307;1281;75357;-26
2022/09/23 02:08:26;;;;;;;3.60;2.00;;;;;;;7.84;87.07;98790.88;104231;1280;63306;-26
2022/09/23 02:10:55;;;;;;;2.60;1.90;;;;;;;8.25;86.15;98793.37;104585;1277;61119;-24
2022/09/23 02:13:29;;;;;;;4.00;2.20;;;;;;;8.57;84.12;98798.28;104772;1274;74750;-24
2022/09/23 02:15:59;;;;;;;4.70;1.70;;;;;;;8.45;83.88;98793.63;104742;1275;77006;-24
2022/09/23 02:18:38;;;;;;;4.30;2.40;;;;;;;8.21;84.54;98794.73;104622;1274;75354;-26
2022/09/23 02:21:05;;;;;;;4.10;2.30;;;;;;;7.68;86.69;98789.10;104710;1277;61886;-26
2022/09/23 02:23:42;;;;;;;2.70;2.00;;;;;;;7.87;86.68;98790.88;104714;1277;63017;-26
2022/09/23 02:26:24;;;;;;;4.70;2.50;;;;;;;8.35;84.85;98796.30;104676;1274;75732;-26
2022/09/23 02:28:55;;;;;;;2.80;2.30;;;;;;;8.18;85.03;98795.45;104660;1275;75940;-26
2022/09/23 02:31:26;;;;;;;4.30;2.30;;;;;;;8.09;85.25;98791.83;104622;1274;74381;-26
2022/09/23 02:34:03;;;;;;;2.70;2.20;;;;;;;7.84;86.15;98790.58;104729;1277;62851;-26
2022/09/23 02:36:33;;;;;;;2.30;1.80;;;;;;;7.68;87.16;98784.30;104637;1277;61793;-26
2022/09/23 02:39:02;;;;;;;3.90;2.00;;;;;;;8.16;85.50;98791.84;104708;1275;74726;-26
2022/09/23 02:41:31;;;;;;;5.20;2.60;;;;;;;8.30;84.46;98790.44;104717;1275;74927;-26
2022/09/23 02:44:08;;;;;;;3.40;2.00;;;;;;;8.17;84.62;98787.94;104561;1278;74494;-26
2022/09/23 02:46:36;;;;;;;2.90;2.20;;;;;;;7.91;85.44;98784.71;104393;1277;61976;-27
2022/09/23 02:49:23;;;;;;;2.20;1.70;;;;;;;7.62;86.84;98787.84;104554;1277;61018;-24
2022/09/23 02:51:50;;;;;;;2.70;2.00;;;;;;;7.90;86.25;98790.12;104636;1275;74704;-26
2022/09/23 02:54:21;;;;;;;3.00;2.40;;;;;;;8.20;84.98;98786.17;104583;1275;75791;-25
2022/09/23 02:56:48;;;;;;;2.90;2.20;;;;;;;8.08;84.99;98784.80;104231;1277;71856;-25
2022/09/23 02:59:18;;;;;;;5.70;2.20;;;;;;;7.79;85.92;98781.11;104649;1277;63075;-26
2022/09/23 03:01:51;;;;;;;3.80;2.10;;;;;;;7.59;87.24;98787.17;104614;1281;63555;-24
2022/09/23 03:04:39;;;;;;;2.20;1.50;;;;;;;7.61;87.50;98786.02;104510;1277;75759;-23
2022/09/23 03:07:31;;;;;;;5.20;2.10;;;;;;;8.12;85.49;98783.31;104418;1278;77065;-24
2022/09/23 03:10:15;;;;;;;3.20;2.10;;;;;;;8.08;84.76;98781.47;104472;1277;75508;-24
2022/09/23 03:12:51;;;;;;;3.40;2.10;;;;;;;7.83;86.07;98787.38;104632;1275;63100;-24
2022/09/23 03:15:50;;;;;;;2.50;1.90;;;;;;;7.73;86.51;98786.84;104702;1276;63072;-24
2022/09/23 03:18:42;;;;;;;2.10;1.80;;;;;;;7.76;86.88;98787.55;104602;1277;74684;-25
2022/09/23 03:21:32;;;;;;;3.50;2.00;;;;;;;8.28;85.03;98787.80;104581;1275;74890;-26
2022/09/23 03:24:00;;;;;;;3.10;1.90;;;;;;;8.17;84.54;98784.48;104321;1278;75437;-25
2022/09/23 03:26:30;;;;;;;2.80;2.20;;;;;;;8.04;85.13;98790.46;104313;1279;61292;-25
2022/09/23 03:28:57;;;;;;;3.00;2.10;;;;;;;7.85;86.24;98798.23;104543;1277;62996;-25
2022/09/23 03:31:24;;;;;;;3.00;1.50;;;;;;;7.66;87.18;98798.94;104661;1278;76029;-25
2022/09/23 03:33:54;;;;;;;3.30;1.60;;;;;;;8.16;86.26;98802.48;104349;1278;75868;-26
2022/09/23 03:39:16;;;;;;;3.20;2.50;;;;;;;8.48;83.72;98803.05;104487;1278;62786;-24
2022/09/23 03:41:48;;;;;;;3.90;1.80;;;;;;;8.21;84.35;98798.00;104418;1275;62761;-25
2022/09/23 03:44:22;;;;;;;3.70;2.30;;;;;;;7.98;85.37;98800.63;104554;1274;75873;-25
2022/09/23 03:46:49;;;;;;;3.20;1.60;;;;;;;7.88;86.40;98800.81;104666;1277;76968;-25
2022/09/23 03:49:18;;;;;;;4.00;1.80;;;;;;;8.21;85.19;98796.08;104650;1278;75366;-25
2022/09/23 03:51:45;;;;;;;2.50;1.90;;;;;;;8.58;83.24;98794.02;104499;1278;61820;-25
2022/09/23 03:54:12;;;;;;;4.20;2.30;;;;;;;8.39;83.51;98790.11;104406;1278;62044;-25
2022/09/23 03:56:39;;;;;;;2.80;2.50;;;;;;;8.12;84.95;98789.67;104640;1277;75752;-26
2022/09/23 03:59:06;;;;;;;4.10;2.50;;;;;;;8.00;85.55;98789.52;104682;1275;77488;-25
2022/09/23 04:01:34;;;;;;;3.20;2.10;;;;;;;7.81;86.39;98788.73;104541;1278;75377;-25
2022/09/23 04:04:01;;;;;;;7.90;2.40;;;;;;;8.03;86.13;98790.52;104536;1275;63263;-25
2022/09/23 04:06:28;;;;;;;2.10;1.70;;;;;;;8.42;84.49;98787.44;104457;1278;61954;-25
2022/09/23 04:08:56;;;;;;;2.50;2.00;;;;;;;8.40;84.13;98788.63;104558;1275;76140;-25
2022/09/23 04:11:23;;;;;;;2.90;2.40;;;;;;;8.13;85.09;98784.73;104678;1274;76514;-26
2022/09/23 04:13:50;;;;;;;2.60;2.20;;;;;;;7.89;86.21;98785.54;104670;1277;74427;-23
2022/09/23 04:16:17;;;;;;;2.80;1.70;;;;;;;7.87;86.88;98784.13;104646;1275;63444;-23
2022/09/23 04:18:45;;;;;;;4.10;2.30;;;;;;;8.39;85.50;98783.54;104598;1277;63387;-23
2022/09/23 04:21:12;;;;;;;3.40;2.70;;;;;;;8.48;84.13;98780.21;104649;1274;74573;-23
2022/09/23 04:23:40;;;;;;;5.10;2.80;;;;;;;8.35;84.64;98779.61;104541;1277;77106;-25
2022/09/23 04:26:07;;;;;;;3.80;2.50;;;;;;;8.13;85.53;98779.39;104573;1274;75697;-24
2022/09/23 04:28:34;;;;;;;4.00;2.80;;;;;;;7.97;86.55;98776.80;104472;1275;63324;-24
2022/09/23 04:31:05;;;;;;;4.40;2.20;;;;;;;7.84;87.57;98780.39;104561;1275;63062;-26
2022/09/23 04:33:33;;;;;;;4.40;2.40;;;;;;;8.23;86.61;98778.88;104366;1275;74829;-24
2022/09/23 04:36:00;;;;;;;3.40;2.40;;;;;;;8.59;84.58;98773.72;104661;1274;75875;-25
2022/09/23 04:38:27;;;;;;;4.50;2.70;;;;;;;8.57;84.32;98773.53;104533;1277;74078;-25
2022/09/23 04:40:55;;;;;;;3.30;2.40;;;;;;;8.36;84.88;98777.32;104553;1277;63153;-25
2022/09/23 04:43:23;;;;;;;3.40;2.60;;;;;;;7.99;86.32;98773.87;104516;1277;62894;-24
2022/09/23 04:46:00;;;;;;;6.90;2.10;;;;;;;7.86;87.62;98778.45;104362;1278;74462;-25
2022/09/23 04:48:27;;;;;;;4.30;2.30;;;;;;;8.32;86.29;98775.92;104436;1276;74717;-24
2022/09/23 04:51:02;;;;;;;3.40;2.40;;;;;;;8.61;84.65;98774.27;104624;1278;74045;-25
2022/09/23 04:53:30;;;;;;;3.70;2.80;;;;;;;8.38;85.24;98773.52;104614;1277;62819;-25
2022/09/23 04:56:05;;;;;;;3.90;2.70;;;;;;;8.30;85.80;98777.25;104315;1278;61972;-25
2022/09/23 04:58:33;;;;;;;3.50;2.20;;;;;;;8.09;86.43;98778.72;104495;1277;75729;-22
2022/09/23 05:01:16;;;;;;;7.80;2.10;;;;;;;8.18;87.17;98780.08;104668;1277;75561;-23
2022/09/23 05:03:44;;;;;;;5.60;2.80;;;;;;;8.68;84.78;98780.42;104523;1277;74320;-26
2022/09/23 05:06:12;;;;;;;2.90;2.60;;;;;;;8.52;84.82;98778.73;104591;1277;62789;-26
2022/09/23 05:08:41;;;;;;;2.60;2.20;;;;;;;8.42;85.51;98783.48;104666;1278;63050;-26
2022/09/23 05:11:08;;;;;;;3.40;2.30;;;;;;;8.20;86.25;98778.35;104521;1278;74167;-27
2022/09/23 05:13:35;;;;;;;2.10;1.90;;;;;;;8.04;87.31;98780.75;104656;1277;77287;-25
2022/09/23 05:16:05;;;;;;;5.00;2.50;;;;;;;8.36;86.49;98775.63;104682;1277;73983;-25
2022/09/23 05:18:36;;;;;;;2.40;2.00;;;;;;;8.80;84.76;98777.30;104363;1281;62020;-25
2022/09/23 05:21:03;;;;;;;3.80;2.50;;;;;;;8.78;84.41;98774.69;104403;1280;62578;-24
2022/09/23 05:23:30;;;;;;;2.80;2.40;;;;;;;8.52;85.14;98773.38;104511;1277;74549;-23
2022/09/23 05:26:16;;;;;;;2.90;2.20;;;;;;;8.28;86.48;98774.99;104577;1277;77153;-24
2022/09/23 05:28:43;;;;;;;2.30;1.90;;;;;;;8.17;87.74;98779.67;104393;1278;74046;-23
2022/09/23 05:31:13;;;;;;;3.40;2.30;;;;;;;8.59;85.89;98780.13;104578;1277;62934;-24
2022/09/23 05:33:48;;;;;;;3.90;2.40;;;;;;;8.62;85.22;98775.41;104574;1278;62839;-24
2022/09/23 05:36:19;;;;;;;4.60;2.90;;;;;;;8.49;85.36;98780.66;104534;1278;75700;-24
2022/09/23 05:38:48;;;;;;;3.90;2.50;;;;;;;8.26;86.57;98778.97;104632;1277;76834;-24
2022/09/23 05:41:16;;;;;;;3.50;2.30;;;;;;;7.98;87.90;98775.55;104500;1278;75458;-24
2022/09/23 05:43:44;;;;;;;3.90;2.20;;;;;;;8.40;86.84;98780.66;104673;1277;63230;-24
2022/09/23 05:46:16;;;;;;;4.30;2.50;;;;;;;8.75;85.63;98780.81;104751;1277;62190;-24
2022/09/23 05:48:46;;;;;;;3.70;2.80;;;;;;;8.71;85.40;98780.24;104467;1278;75848;-24
2022/09/23 05:51:17;;;;;;;3.40;2.90;;;;;;;8.49;85.88;98784.86;104654;1277;75758;-24
2022/09/23 05:53:44;;;;;;;3.30;2.20;;;;;;;8.23;87.29;98788.00;104511;1277;75148;-24
2022/09/23 05:56:12;;;;;;;3.40;2.60;;;;;;;8.39;87.10;98787.69;104602;1277;61781;-24
2022/09/23 05:58:40;;;;;;;3.50;2.40;;;;;;;8.63;85.33;98785.48;104500;1278;63301;-24
2022/09/23 06:01:09;;;;;;;3.40;2.60;;;;;;;8.68;85.26;98792.75;104727;1277;76365;-24
2022/09/23 06:03:37;;;;;;;5.50;3.00;;;;;;;8.55;85.87;98795.14;104651;1277;76021;-24
2022/09/23 06:06:05;;;;;;;3.60;2.30;;;;;;;8.46;86.42;98793.05;104695;1277;73556;-24
2022/09/23 06:08:33;;;;;;;2.50;2.00;;;;;;;8.41;87.26;98796.82;104629;1277;64411;-24
2022/09/23 06:11:08;;;;;;;3.00;2.30;;;;;;;8.81;85.88;98794.37;104670;1277;62022;-24
2022/09/23 06:13:38;;;;;;;2.60;2.20;;;;;;;8.89;84.25;98792.52;104412;1277;75573;-23
2022/09/23 06:16:06;;;;;;;3.40;2.30;;;;;;;8.98;84.98;98800.66;104504;1277;76081;-25
2022/09/23 06:18:34;;;;;;;3.80;2.60;;;;;;;9.10;84.94;98798.00;104590;1277;75375;-24
2022/09/23 06:21:02;;;;;;;2.60;1.80;;;;;;;8.90;84.97;98797.11;104317;1278;63332;-24
2022/09/23 06:23:29;;;;;;;2.90;1.90;;;;;;;8.93;84.65;98797.61;104451;1277;62047;-23
2022/09/23 06:26:01;;;;;;;2.60;1.90;;;;;;;9.44;83.43;98801.17;104594;1277;76398;-24
2022/09/23 06:28:31;;;;;;;2.60;2.30;;;;;;;9.59;82.64;98798.23;104292;1279;77338;-23
2022/09/23 06:30:59;;;;;;;3.20;2.20;;;;;;;9.41;81.79;98798.66;104380;1278;74379;-23
2022/09/23 06:33:26;;;;;;;2.90;2.20;;;;;;;9.19;83.28;98800.05;104572;1277;62828;-24
2022/09/23 06:36:04;;;;;;;2.80;1.90;;;;;;;8.96;84.09;98799.25;104541;1277;61897;-23
2022/09/23 06:38:33;;;;;;;2.90;1.80;;;;;;;9.31;82.27;98801.64;104375;1280;76547;-23
2022/09/23 06:41:02;;;;;;;2.60;2.20;;;;;;;9.39;81.59;98800.72;104608;1277;76764;-23
2022/09/23 06:43:29;;;;;;;2.40;1.90;;;;;;;9.39;81.90;98803.67;104390;1278;75165;-25
2022/09/23 06:46:00;;;;;;;3.00;2.30;;;;;;;8.99;82.42;98800.55;104625;1277;61150;-24
2022/09/23 06:48:27;;;;;;;2.20;2.00;;;;;;;8.76;83.71;98806.48;104477;1277;61212;-24
2022/09/23 06:50:58;;;;;;;2.00;1.60;;;;;;;8.58;84.35;98812.87;104356;1277;76774;-24
2022/09/23 06:53:25;;;;;;;2.50;1.60;;;;;;;8.90;83.12;98810.07;104352;1277;76961;-24
2022/09/23 06:55:59;;;;;;;4.60;2.20;;;;;;;9.18;81.96;98809.31;104547;1277;74336;-25
2022/09/23 06:58:26;;;;;;;2.60;1.80;;;;;;;9.26;81.85;98812.06;104512;1277;62193;-24
2022/09/23 07:00:54;;;;;;;2.10;1.90;;;;;;;9.04;82.16;98809.15;104594;1277;61778;-24
2022/09/23 07:03:21;;;;;;;3.10;2.10;;;;;;;8.64;83.94;98809.98;104364;1278;76561;-23
2022/09/23 07:05:48;;;;;;;3.20;2.00;;;;;;;8.48;84.88;98807.90;104290;1277;76892;-24
2022/09/23 07:08:15;;;;;;;2.60;1.80;;;;;;;8.81;84.19;98810.46;104431;1277;74251;-25
2022/09/23 07:10:42;;;;;;;4.50;1.90;;;;;;;9.09;82.58;98812.04;104532;1277;62018;-24
2022/09/23 07:13:10;;;;;;;2.10;1.80;;;;;;;9.11;82.11;98808.27;104320;1277;63167;-24
2022/09/23 07:15:42;;;;;;;2.60;1.90;;;;;;;9.02;82.69;98810.38;104317;1280;75510;-24
2022/09/23 07:18:09;;;;;;;2.30;1.60;;;;;;;8.92;83.37;98808.16;104259;1278;75973;-23
2022/09/23 07:20:37;;;;;;;3.50;1.50;;;;;;;8.88;83.49;98807.27;104285;1277;75410;-24
2022/09/23 07:23:04;;;;;;;2.60;1.60;;;;;;;9.24;82.83;98812.44;104538;1277;63069;-24
2022/09/23 07:25:33;;;;;;;2.20;1.70;;;;;;;9.63;81.56;98810.20;104381;1278;62817;-24
2022/09/23 07:28:00;;;;;;;3.10;1.70;;;;;;;9.77;80.99;98810.98;104629;1277;76668;-23
2022/09/23 07:30:28;;;;;;;2.50;1.50;;;;;;;9.59;80.56;98811.39;104324;1278;75813;-24
2022/09/23 07:32:55;;;;;;;2.50;1.90;;;;;;;9.44;82.70;98811.58;104513;1277;75438;-23
2022/09/23 07:35:22;;;;;;;2.80;1.40;;;;;;;9.59;83.81;98813.48;104332;1277;63699;-24
2022/09/23 07:37:49;;;;;;;1.90;1.50;;;;;;;10.06;80.29;98809.49;104533;1277;62931;-25
2022/09/23 07:40:16;;;;;;;2.10;1.70;;;;;;;10.44;78.23;98808.60;104543;1277;77289;-24
2022/09/23 07:42:44;;;;;;;1.30;1.10;;;;;;;10.65;79.00;98814.12;104431;1277;77043;-24
2022/09/23 07:45:11;;;;;;;3.50;1.50;;;;;;;10.45;76.63;98808.91;104503;1277;73459;-25
2022/09/23 07:47:39;;;;;;;1.70;1.20;;;;;;;10.24;77.14;98810.06;104350;1277;62016;-24
2022/09/23 07:50:10;;;;;;;1.70;1.40;;;;;;;10.12;77.16;98809.19;104337;1277;61065;-24
2022/09/23 07:52:37;;;;;;;2.00;1.40;;;;;;;10.00;78.06;98803.04;104402;1277;76388;-23
2022/09/23 07:55:06;;;;;;;1.80;1.20;;;;;;;9.95;79.72;98805.55;104569;1277;77007;-23
2022/09/23 07:57:33;;;;;;;2.80;1.10;;;;;;;10.41;78.06;98796.88;104351;1278;75565;-23
2022/09/23 08:00:01;;;;;;;1.40;1.20;;;;;;;10.82;76.13;98795.14;104547;1277;62217;-23
2022/09/23 08:02:37;;;;;;;2.10;1.60;;;;;;;10.81;75.45;98797.53;104606;1277;61144;-24
2022/09/23 08:05:05;;;;;;;1.20;1.10;;;;;;;10.53;76.47;98793.80;104264;1277;76242;-23
2022/09/23 08:07:33;;;;;;;1.60;1.40;;;;;;;10.29;78.08;98795.58;104639;1272;75856;-25
2022/09/23 08:10:00;;;;;;;1.60;1.50;;;;;;;10.11;78.70;98796.48;104625;1274;74146;-24
2022/09/23 08:12:31;;;;;;;1.20;0.90;;;;;;;9.85;77.97;98799.89;104696;1274;64725;-24
2022/09/23 08:14:59;;;;;;;1.90;1.40;;;;;;;10.23;78.29;98799.90;104553;1274;62842;-24
2022/09/23 08:17:26;;;;;;;1.60;1.40;;;;;;;10.66;76.21;98802.12;104708;1272;75620;-24
2022/09/23 08:19:53;;;;;;;2.10;1.60;;;;;;;10.54;75.42;98797.68;104722;1271;76979;-23
2022/09/23 08:22:21;;;;;;;1.80;1.20;;;;;;;10.37;76.62;98795.81;104709;1274;75354;-24
2022/09/23 08:24:48;;;;;;;2.50;1.60;;;;;;;10.14;77.19;98794.05;104622;1274;62796;-23
2022/09/23 08:27:16;;;;;;;2.50;1.70;;;;;;;9.82;78.75;98793.60;104797;1271;62993;-25
2022/09/23 08:29:44;;;;;;;2.80;1.10;;;;;;;9.77;79.23;98794.02;104583;1274;75229;-25
2022/09/23 08:32:11;;;;;;;2.30;1.20;;;;;;;9.98;78.51;98791.08;104609;1274;77053;-25
2022/09/23 08:34:38;;;;;;;2.00;1.70;;;;;;;10.24;78.03;98788.89;104701;1273;74463;-26
2022/09/23 08:37:10;;;;;;;1.70;1.30;;;;;;;10.37;76.86;98787.16;104787;1272;63296;-25
2022/09/23 08:39:37;;;;;;;3.30;1.50;;;;;;;10.30;76.94;98786.29;104620;1274;61733;-24
2022/09/23 08:45:49;;;;;;;2.20;2.00;;;;;;;10.22;77.57;98781.27;102319;1300;617621;-24
2022/09/23 08:48:23;;;;;;;2.10;1.40;;;;;;;10.19;77.28;98777.53;104229;1284;62771;-24
2022/09/23 08:50:52;;;;;;;4.90;1.60;;;;;;;10.63;75.16;98774.71;104188;1284;61972;-24
2022/09/23 08:53:25;;;;;;;1.80;1.40;;;;;;;10.73;73.24;98775.58;104227;1284;73707;-24
2022/09/23 08:55:54;;;;;;;3.90;1.90;;;;;;;10.60;73.92;98778.08;104220;1284;76094;-24
2022/09/23 08:58:28;;;;;;;2.40;1.30;;;;;;;10.70;73.90;98775.05;103318;1281;1222383;-24
2022/09/23 09:01:22;;;;;;;2.20;1.60;;;;;;;10.44;72.93;98774.80;104451;1284;62096;-24
2022/09/23 09:03:53;;;;;;;;;;;;;;;10.69;73.57;98777.86;104216;1281;61163;-25
2022/09/23 09:06:22;;;;;;;7.90;2.00;;;;;;;10.53;71.87;98770.86;104117;1284;73757;-24
2022/09/23 09:08:58;;;;;;;1.90;1.20;;;;;;;10.53;74.41;98778.50;104233;1281;75975;-24
2022/09/23 09:11:42;;;;;;;1.70;1.50;;;;;;;10.36;73.33;98772.14;104058;1282;74345;-24
2022/09/23 09:14:27;;;;;;;1.80;1.40;;;;;;;10.10;74.48;98776.59;103833;1281;62067;-24
2022/09/23 09:17:00;;;;;;;2.00;1.10;;;;;;;10.09;73.45;98774.21;104215;1281;61036;-24
2022/09/23 09:19:46;;;;;;;2.40;1.40;;;;;;;10.28;72.26;98772.80;104046;1284;74811;-24
2022/09/23 09:22:20;;;;;;;2.50;1.40;;;;;;;10.33;73.30;98773.27;104279;1281;74636;-24
2022/09/23 09:24:47;;;;;;;;;;;;;;;10.47;72.37;98773.66;104318;1282;73652;-24
2022/09/23 09:27:15;;;;;;;2.60;1.60;;;;;;;10.27;73.08;98775.48;104559;1277;62003;-24
2022/09/23 09:29:45;;;;;;;4.00;1.60;;;;;;;10.28;73.72;98773.68;104550;1277;61044;-24
2022/09/23 09:32:18;;;;;;;1.80;1.60;;;;;;;10.10;74.30;98775.38;104382;1277;73825;-24
2022/09/23 09:34:53;;;;;;;1.60;1.10;;;;;;;10.15;74.96;98774.96;104687;1274;76164;-24
2022/09/23 09:37:29;;;;;;;1.80;1.60;;;;;;;10.68;72.64;98773.58;104607;1277;73219;-24
2022/09/23 09:39:58;;;;;;;2.00;1.50;;;;;;;11.18;70.28;98772.77;104634;1275;61175;-24
2022/09/23 09:42:36;;;;;;;1.70;1.60;;;;;;;11.20;70.40;98768.06;104692;1277;62117;-24
2022/09/23 09:45:04;;;;;;;2.20;1.60;;;;;;;10.90;71.47;98767.53;104635;1277;74845;-24
2022/09/23 09:47:45;;;;;;;2.30;1.80;;;;;;;10.89;71.54;98767.34;104593;1277;75929;-24
2022/09/23 09:50:19;;;;;;;4.50;1.70;;;;;;;10.75;72.76;98763.69;104581;1277;74242;-25
2022/09/23 09:52:55;;;;;;;2.60;1.70;;;;;;;10.41;72.27;98760.41;104408;1277;61224;-24
2022/09/23 09:55:26;;;;;;;3.00;1.70;;;;;;;10.31;72.83;98756.11;104407;1277;61147;-24
2022/09/23 09:58:03;;;;;;;1.20;1.10;;;;;;;10.25;72.74;98758.64;104343;1277;74765;-24
2022/09/23 10:00:45;;;;;;;1.90;1.20;;;;;;;10.54;72.15;98759.55;104416;1278;75975;-24
2022/09/23 10:03:12;;;;;;;1.80;1.50;;;;;;;11.04;69.92;98763.71;104519;1278;73427;-24
2022/09/23 10:05:51;;;;;;;2.50;1.80;;;;;;;10.91;69.43;98760.38;104637;1274;61105;-24
2022/09/23 10:08:35;;;;;;;3.60;2.20;;;;;;;10.80;70.21;98759.55;104404;1274;61892;-25
2022/09/23 10:11:07;;;;;;;3.50;2.20;;;;;;;10.84;70.80;98760.06;104621;1277;74690;-23
2022/09/23 10:13:35;;;;;;;5.50;2.00;;;;;;;10.73;70.88;98756.85;104541;1274;75980;-26
2022/09/23 10:16:03;;;;;;;4.30;2.00;;;;;;;10.55;71.44;98755.98;104618;1274;74281;-25
2022/09/23 10:18:33;;;;;;;2.00;1.80;;;;;;;10.49;71.89;98754.90;104630;1274;61140;-25
2022/09/23 10:21:07;;;;;;;1.80;1.40;;;;;;;10.51;72.24;98751.59;104727;1275;61089;-24
2022/09/23 10:23:39;;;;;;;3.70;1.30;;;;;;;11.17;70.51;98750.08;104752;1275;73688;-26
2022/09/23 10:26:10;;;;;;;3.60;1.70;;;;;;;11.71;67.28;98742.48;104740;1274;76036;-25
2022/09/23 10:28:37;;;;;;;2.20;1.60;;;;;;;11.70;66.75;98739.29;104573;1275;73315;-24
2022/09/23 10:31:25;;;;;;;2.30;1.70;;;;;;;11.38;67.21;98737.99;104613;1275;61176;-24
2022/09/23 10:34:00;;;;;;;2.80;1.30;;;;;;;11.15;68.90;98736.32;104374;1275;62142;-24
2022/09/23 10:36:29;;;;;;;1.40;1.30;;;;;;;11.05;69.47;98737.77;104752;1274;75301;-24
2022/09/23 10:48:02;;;;;;;3.90;1.60;;;;;;;10.62;70.83;98734.05;104877;1274;61107;-24
2022/09/23 10:50:49;;;;;;;;;;;;;;;10.48;71.12;98726.41;104696;1275;74668;-24
2022/09/23 10:53:28;;;;;;;1.60;1.20;;;;;;;10.71;70.56;98736.55;104727;1274;75256;-24
2022/09/23 10:56:08;;;;;;;3.30;1.30;;;;;;;10.81;69.78;98738.64;104744;1274;74687;-24
2022/09/23 10:59:01;;;;;;;1.60;1.30;;;;;;;10.77;70.09;98741.25;104605;1277;61404;-24
2022/09/23 11:01:35;;;;;;;4.40;1.40;;;;;;;10.71;70.26;98745.06;104604;1274;61118;-24
2022/09/23 11:04:30;;;;;;;1.90;1.70;;;;;;;10.70;71.43;98739.90;104330;1278;75113;-24
2022/09/23 11:07:01;;;;;;;2.70;1.30;;;;;;;10.56;71.26;98735.58;104601;1277;75887;-24
2022/09/23 11:09:56;;;;;;;2.60;1.60;;;;;;;10.36;71.61;98729.97;104306;1278;74390;-24
2022/09/23 11:13:14;;;;;;;1.30;0.90;;;;;;;10.47;71.90;98734.64;104600;1274;62628;-24
2022/09/23 11:16:04;;;;;;;2.80;1.30;;;;;;;11.04;70.16;98735.58;104040;1283;61348;-24
2022/09/23 11:19:07;;;;;;;2.10;1.50;;;;;;;11.22;68.81;98737.12;103774;1283;74614;-24
2022/09/23 11:21:37;;;;;;;5.00;1.50;;;;;;;11.20;70.16;98740.44;103912;1283;76394;-25
2022/09/23 11:24:13;;;;;;;2.40;1.40;;;;;;;11.12;69.92;98739.58;104077;1283;74411;-24
2022/09/23 11:27:06;;;;;;;3.50;1.70;;;;;;;11.31;71.18;98735.85;103841;1284;62054;-24
2022/09/23 11:29:41;;;;;;;3.30;1.70;;;;;;;11.50;70.40;98735.68;103807;1283;61174;-23
2022/09/23 11:32:18;;;;;;;2.60;1.70;;;;;;;11.38;69.99;98733.08;103725;1284;74078;-23
2022/09/23 11:35:20;;;;;;;1.90;1.70;;;;;;;11.38;71.83;98731.58;104055;1283;76065;-23
2022/09/23 11:37:52;;;;;;;1.50;1.20;;;;;;;11.49;71.29;98725.23;104137;1283;74496;-23
2022/09/23 11:40:25;;;;;;;2.90;1.20;;;;;;;11.82;68.93;98718.77;103692;1284;61296;-24
2022/09/23 11:42:58;;;;;;;1.50;1.30;;;;;;;12.07;67.01;98718.54;103828;1283;61140;-24
2022/09/23 11:45:56;;;;;;;2.60;1.60;;;;;;;12.31;67.26;98721.55;103785;1284;74771;-24
2022/09/23 11:48:26;;;;;;;1.50;1.30;;;;;;;11.98;65.70;98715.56;103802;1284;75870;-24
2022/09/23 11:51:19;;;;;;;2.70;1.40;;;;;;;11.61;66.91;98712.97;104248;1278;75076;-24
2022/09/23 11:53:51;;;;;;;2.50;1.70;;;;;;;11.16;68.53;98714.44;103986;1280;61176;-24
2022/09/23 11:56:30;;;;;;;2.40;1.90;;;;;;;11.13;69.82;98718.59;104306;1277;61085;-24
2022/09/23 11:59:09;;;;;;;4.00;1.80;;;;;;;11.13;71.30;98718.60;104334;1277;74809;-24
2022/09/23 12:01:44;;;;;;;3.70;1.90;;;;;;;11.14;71.62;98714.92;104501;1279;76020;-24
2022/09/23 12:04:27;;;;;;;3.70;1.60;;;;;;;11.39;69.55;98714.09;104594;1278;72165;-24
2022/09/23 12:07:08;;;;;;;2.60;1.60;;;;;;;11.26;72.04;98715.96;104407;1277;63608;-24
2022/09/23 12:09:45;;;;;;;2.00;1.60;;;;;;;11.43;72.85;98714.64;104458;1277;61254;-24
2022/09/23 12:12:34;;;;;;;1.90;1.30;;;;;;;11.70;72.18;98706.63;104731;1277;74621;-22
2022/09/23 12:15:20;;;;;;;1.40;1.20;;;;;;;11.27;72.80;98715.30;104585;1277;76029;-23